createdAt,value
2024-02-19T00:00:30.139Z,99.90
2024-02-19T00:03:04.040Z,99.90
2024-02-19T00:05:32.732Z,99.90
2024-02-19T00:08:01.569Z,99.90
2024-02-19T00:10:30.193Z,99.90
2024-02-19T00:13:00.246Z,99.90
2024-02-19T00:15:28.935Z,99.90
2024-02-19T00:17:57.581Z,99.90
2024-02-19T00:20:26.206Z,99.90
2024-02-19T00:22:54.813Z,99.90
2024-02-19T00:25:23.562Z,99.90
2024-02-19T00:27:52.209Z,99.90
2024-02-19T00:30:22.229Z,99.90
2024-02-19T00:32:50.879Z,99.90
2024-02-19T00:35:22.318Z,99.90
2024-02-19T00:37:51.516Z,99.90
2024-02-19T00:40:20.783Z,99.90
2024-02-19T00:42:49.517Z,99.90
2024-02-19T00:45:18.308Z,99.90
2024-02-19T00:47:48.299Z,99.90
2024-02-19T00:50:16.902Z,99.90
2024-02-19T00:52:45.511Z,99.90
2024-02-19T00:55:14.114Z,99.90
2024-02-19T00:57:42.724Z,99.90
2024-02-19T01:00:11.678Z,99.90
2024-02-19T01:02:40.251Z,99.90
2024-02-19T01:05:10.774Z,99.90
2024-02-19T01:07:40.015Z,99.90
2024-02-19T01:10:10.933Z,99.90
2024-02-19T01:12:39.996Z,99.90
2024-02-19T01:15:09.483Z,99.90
2024-02-19T01:17:38.177Z,99.90
2024-02-19T01:20:10.780Z,99.90
2024-02-19T01:22:40.105Z,99.90
2024-02-19T01:25:09.498Z,99.90
2024-02-19T01:27:38.068Z,99.90
2024-02-19T01:30:08.290Z,99.90
2024-02-19T01:32:40.810Z,99.90
2024-02-19T01:35:11.709Z,99.90
2024-02-19T01:37:41.206Z,99.90
2024-02-19T01:40:11.754Z,99.90
2024-02-19T01:42:41.093Z,99.90
2024-02-19T01:45:26.016Z,99.90
2024-02-19T01:47:55.148Z,99.90
2024-02-19T01:50:26.119Z,99.90
2024-02-19T01:52:55.759Z,99.90
2024-02-19T01:55:24.842Z,99.90
2024-02-19T01:57:58.113Z,99.90
2024-02-19T02:00:29.505Z,99.90
2024-02-19T02:02:58.444Z,99.90
2024-02-19T02:05:29.326Z,99.90
2024-02-19T02:07:57.935Z,99.90
2024-02-19T02:10:26.701Z,99.90
2024-02-19T02:12:55.372Z,99.90
2024-02-19T02:15:24.001Z,99.90
2024-02-19T02:17:52.670Z,99.90
2024-02-19T02:20:21.249Z,99.90
2024-02-19T02:22:52.356Z,99.90
2024-02-19T02:25:22.794Z,99.90
2024-02-19T02:27:52.842Z,99.90
2024-02-19T02:30:21.519Z,99.90
2024-02-19T02:32:54.506Z,99.90
2024-02-19T02:35:23.678Z,99.90
2024-02-19T02:37:52.349Z,99.90
2024-02-19T02:40:21.218Z,99.90
2024-02-19T02:42:49.879Z,99.90
2024-02-19T02:45:20.134Z,99.90
2024-02-19T02:47:48.735Z,99.90
2024-02-19T02:50:17.450Z,99.90
2024-02-19T02:52:46.878Z,99.90
2024-02-19T02:55:15.896Z,99.90
2024-02-19T02:57:44.652Z,99.90
2024-02-19T03:00:13.973Z,99.90
2024-02-19T03:02:43.985Z,99.90
2024-02-19T03:05:12.641Z,99.90
2024-02-19T03:07:41.409Z,99.90
2024-02-19T03:10:12.486Z,99.90
2024-02-19T03:12:41.241Z,99.90
2024-02-19T03:15:10.591Z,99.90
2024-02-19T03:17:39.408Z,99.90
2024-02-19T03:20:14.474Z,99.90
2024-02-19T03:22:44.352Z,99.90
2024-02-19T03:25:13.383Z,99.90
2024-02-19T03:27:42.599Z,99.90
2024-02-19T03:30:12.050Z,99.90
2024-02-19T03:32:40.698Z,99.90
2024-02-19T03:35:10.931Z,99.90
2024-02-19T03:37:39.481Z,99.90
2024-02-19T03:40:11.937Z,99.90
2024-02-19T03:42:40.618Z,99.90
2024-02-19T03:45:14.457Z,99.90
2024-02-19T03:47:43.191Z,99.90
2024-02-19T03:50:13.568Z,99.90
2024-02-19T03:52:42.203Z,99.90
2024-02-19T03:55:11.401Z,99.90
2024-02-19T03:57:40.401Z,99.90
2024-02-19T04:00:12.988Z,99.90
2024-02-19T04:02:41.802Z,99.90
2024-02-19T04:05:12.184Z,99.90
2024-02-19T04:07:40.825Z,99.90
2024-02-19T04:10:10.023Z,99.90
2024-02-19T04:12:39.766Z,99.90
2024-02-19T04:15:08.810Z,99.90
2024-02-19T04:17:37.539Z,99.90
2024-02-19T04:20:07.302Z,99.90
2024-02-19T04:22:37.263Z,99.90
2024-02-19T04:25:06.590Z,99.90
2024-02-19T04:27:35.206Z,99.90
2024-02-19T04:30:03.792Z,99.90
2024-02-19T04:32:32.518Z,99.90
2024-02-19T04:35:01.262Z,99.90
2024-02-19T04:37:29.937Z,99.90
2024-02-19T04:39:59.962Z,99.90
2024-02-19T04:42:28.589Z,99.90
2024-02-19T04:44:57.115Z,99.90
2024-02-19T04:47:25.745Z,99.90
2024-02-19T04:49:54.476Z,99.90
2024-02-19T04:52:23.246Z,99.90
2024-02-19T04:54:51.965Z,99.90
2024-02-19T04:57:23.174Z,99.90
2024-02-19T04:59:51.716Z,99.90
2024-02-19T05:02:20.240Z,99.90
2024-02-19T05:04:48.954Z,99.90
2024-02-19T05:07:18.786Z,99.90
2024-02-19T05:09:47.856Z,99.90
2024-02-19T05:12:16.474Z,99.90
2024-02-19T05:14:46.452Z,99.90
2024-02-19T05:17:15.025Z,99.90
2024-02-19T05:19:44.351Z,99.90
2024-02-19T05:22:13.104Z,99.90
2024-02-19T05:24:48.430Z,99.90
2024-02-19T05:27:17.345Z,99.90
2024-02-19T05:29:47.403Z,99.90
2024-02-19T05:32:19.246Z,99.90
2024-02-19T05:34:49.063Z,99.90
2024-02-19T05:37:17.981Z,99.90
2024-02-19T05:39:46.670Z,99.90
2024-02-19T05:42:15.277Z,99.90
2024-02-19T05:44:43.896Z,99.90
2024-02-19T05:47:13.883Z,99.90
2024-02-19T05:49:45.954Z,99.90
2024-02-19T05:52:15.041Z,99.90
2024-02-19T05:54:44.652Z,99.90
2024-02-19T05:57:13.373Z,99.90
2024-02-19T05:59:41.960Z,99.90
2024-02-19T06:02:10.681Z,99.90
2024-02-19T06:04:41.197Z,99.90
2024-02-19T06:07:09.932Z,99.90
2024-02-19T06:09:41.280Z,99.90
2024-02-19T06:12:10.346Z,99.90
2024-02-19T06:14:38.929Z,99.90
2024-02-19T06:17:07.483Z,99.90
2024-02-19T06:19:37.187Z,99.90
2024-02-19T06:22:08.119Z,99.90
2024-02-19T06:24:36.886Z,99.90
2024-02-19T06:27:07.875Z,99.90
2024-02-19T06:29:36.440Z,99.90
2024-02-19T06:32:05.368Z,99.90
2024-02-19T06:34:36.067Z,99.90
2024-02-19T06:37:05.131Z,99.90
2024-02-19T06:39:37.183Z,99.90
2024-02-19T06:42:06.444Z,99.90
2024-02-19T06:44:35.106Z,99.90
2024-02-19T06:47:03.672Z,99.90
2024-02-19T06:49:32.429Z,99.90
2024-02-19T06:52:01.063Z,99.90
2024-02-19T06:54:31.839Z,99.90
2024-02-19T06:57:04.093Z,99.90
2024-02-19T06:59:32.659Z,99.90
2024-02-19T07:02:04.187Z,99.90
2024-02-19T07:04:36.263Z,99.90
2024-02-19T07:07:10.120Z,99.90
2024-02-19T07:09:39.131Z,99.90
2024-02-19T07:12:10.228Z,99.90
2024-02-19T07:14:38.817Z,99.90
2024-02-19T07:17:07.403Z,99.90
2024-02-19T07:19:36.271Z,99.90
2024-02-19T07:22:05.230Z,99.90
2024-02-19T07:24:37.188Z,99.90
2024-02-19T07:27:08.696Z,99.90
2024-02-19T07:29:37.223Z,99.90
2024-02-19T07:32:10.286Z,99.90
2024-02-19T07:34:41.672Z,99.90
2024-02-19T07:37:11.926Z,99.90
2024-02-19T07:39:42.962Z,99.90
2024-02-19T07:42:13.266Z,99.90
2024-02-19T07:44:45.237Z,99.90
2024-02-19T07:47:13.822Z,99.90
2024-02-19T07:49:43.901Z,99.90
2024-02-19T07:52:12.592Z,99.90
2024-02-19T07:54:42.462Z,99.90
2024-02-19T07:57:12.468Z,99.90
2024-02-19T07:59:41.052Z,99.90
2024-02-19T08:02:10.132Z,99.90
2024-02-19T08:04:39.010Z,99.90
2024-02-19T08:07:07.768Z,99.90
2024-02-19T08:09:36.353Z,99.90
2024-02-19T08:12:05.278Z,99.90
2024-02-19T08:14:36.681Z,99.90
2024-02-19T08:17:05.466Z,99.90
2024-02-19T08:19:34.505Z,99.90
2024-02-19T08:22:03.623Z,99.90
2024-02-19T08:24:32.240Z,99.90
2024-02-19T08:27:02.041Z,99.90
2024-02-19T08:29:31.297Z,99.90
2024-02-19T08:32:03.077Z,99.90
2024-02-19T08:34:31.841Z,99.90
2024-02-19T08:37:00.554Z,99.90
2024-02-19T08:39:30.535Z,99.90
2024-02-19T08:41:59.882Z,99.90
2024-02-19T08:44:29.662Z,99.90
2024-02-19T08:46:59.019Z,99.90
2024-02-19T08:49:29.049Z,99.90
2024-02-19T08:51:57.679Z,99.90
2024-02-19T08:54:28.628Z,99.90
2024-02-19T08:56:57.181Z,99.90
2024-02-19T08:59:25.785Z,99.90
2024-02-19T09:01:54.586Z,99.90
2024-02-19T09:04:23.410Z,99.90
2024-02-19T09:06:53.567Z,99.90
2024-02-19T09:09:22.252Z,99.90
2024-02-19T09:11:50.876Z,99.70
2024-02-19T09:14:19.511Z,99.90
2024-02-19T09:16:48.161Z,99.30
2024-02-19T09:19:18.167Z,94.40
2024-02-19T09:21:46.872Z,92.20
2024-02-19T09:24:16.924Z,84.60
2024-02-19T09:26:45.441Z,71.90
2024-02-19T09:29:17.688Z,68.40
2024-02-19T09:31:46.687Z,71.60
2024-02-19T09:34:30.270Z,58.40
2024-02-19T09:37:00.919Z,46.70
2024-02-19T09:39:44.961Z,53.50
2024-02-19T09:42:14.665Z,53.60
2024-02-19T09:44:43.833Z,50.30
2024-02-19T09:47:18.329Z,43.40
2024-02-19T09:49:48.707Z,37.80
2024-02-19T09:52:26.093Z,23.00
2024-02-19T09:54:58.349Z,34.20
2024-02-19T09:57:30.117Z,39.30
2024-02-19T10:00:04.243Z,25.90
2024-02-19T10:02:35.064Z,33.00
2024-02-19T10:05:04.300Z,33.70
2024-02-19T10:07:33.882Z,31.60
2024-02-19T10:10:05.717Z,33.30
2024-02-19T10:12:35.967Z,23.30
2024-02-19T10:15:04.802Z,18.80
2024-02-19T10:17:33.718Z,19.90
2024-02-19T10:20:03.188Z,17.10
2024-02-19T10:22:33.132Z,5.20
2024-02-19T10:25:05.258Z,3.20
2024-02-19T10:27:34.990Z,1.00
2024-02-19T10:30:04.190Z,1.00
2024-02-19T10:32:32.833Z,1.00
2024-02-19T10:35:01.581Z,1.00
2024-02-19T10:37:32.347Z,1.00
2024-02-19T10:40:01.242Z,1.00
2024-02-19T10:42:32.182Z,1.00
2024-02-19T10:45:01.721Z,1.00
2024-02-19T10:47:31.776Z,1.00
2024-02-19T10:50:01.453Z,1.00
2024-02-19T10:52:32.649Z,1.00
2024-02-19T10:55:14.258Z,1.00
2024-02-19T10:57:58.077Z,1.00
2024-02-19T11:00:27.993Z,1.00
2024-02-19T11:03:05.770Z,1.00
2024-02-19T11:05:41.021Z,1.00
2024-02-19T11:08:30.857Z,1.00
2024-02-19T11:11:13.370Z,1.00
2024-02-19T11:13:50.041Z,1.00
2024-02-19T11:16:23.598Z,1.00
2024-02-19T11:19:13.668Z,1.00
2024-02-19T11:21:51.117Z,1.00
2024-02-19T11:24:19.806Z,1.00
2024-02-19T11:26:48.388Z,1.00
2024-02-19T11:29:22.133Z,1.00
2024-02-19T11:32:14.006Z,1.00
2024-02-19T11:34:43.979Z,1.00
2024-02-19T11:37:15.193Z,1.00
2024-02-19T11:39:45.881Z,1.00
2024-02-19T11:42:20.110Z,1.00
2024-02-19T11:44:52.747Z,1.00
2024-02-19T11:47:23.573Z,1.00
2024-02-19T11:49:52.493Z,1.00
2024-02-19T11:52:22.720Z,1.00
2024-02-19T11:55:00.023Z,1.00
2024-02-19T11:57:31.114Z,1.00
2024-02-19T12:00:12.880Z,1.00
2024-02-19T12:02:49.244Z,1.00
2024-02-19T12:05:18.556Z,1.00
2024-02-19T12:07:50.057Z,1.00
2024-02-19T12:10:19.141Z,1.00
2024-02-19T12:12:53.418Z,1.00
2024-02-19T12:18:06.169Z,1.00
2024-02-19T12:20:54.599Z,1.00
2024-02-19T12:23:23.700Z,1.00
2024-02-19T12:25:52.248Z,1.00
2024-02-19T12:28:21.176Z,1.00
2024-02-19T12:30:56.109Z,1.00
2024-02-19T12:36:30.576Z,1.00
2024-02-19T12:39:04.239Z,1.00
2024-02-19T12:41:35.368Z,1.00
2024-02-19T12:44:04.355Z,1.00
2024-02-19T12:46:46.096Z,1.00
2024-02-19T12:49:17.540Z,1.00
2024-02-19T12:55:02.830Z,1.00
2024-02-19T12:57:31.885Z,1.00
2024-02-19T13:00:08.412Z,1.00
2024-02-19T13:02:38.785Z,1.00
2024-02-19T13:05:08.778Z,1.00
2024-02-19T13:07:41.666Z,1.00
2024-02-19T13:10:18.063Z,1.00
2024-02-19T13:12:46.733Z,1.00
2024-02-19T13:15:34.851Z,1.00
2024-02-19T13:20:59.183Z,1.00
2024-02-19T13:23:32.513Z,1.00
2024-02-19T13:26:20.390Z,1.00
2024-02-19T13:29:03.742Z,1.00
2024-02-19T13:31:46.548Z,1.00
2024-02-19T13:34:27.892Z,1.00
2024-02-19T13:37:12.694Z,1.00
2024-02-19T13:39:43.835Z,1.00
2024-02-19T13:42:27.695Z,1.00
2024-02-19T13:45:05.301Z,1.00
2024-02-19T13:47:35.687Z,1.00
2024-02-19T13:50:08.064Z,1.00
2024-02-19T13:52:44.305Z,1.00
2024-02-19T13:55:21.595Z,1.00
2024-02-19T13:58:03.599Z,1.00
2024-02-19T14:00:32.703Z,1.00
2024-02-19T14:03:13.884Z,1.00
2024-02-19T14:05:44.285Z,1.00
2024-02-19T14:11:09.344Z,1.00
2024-02-19T14:13:46.436Z,1.00
2024-02-19T14:19:32.168Z,1.00
2024-02-19T14:22:17.056Z,1.00
2024-02-19T14:24:52.805Z,1.00
2024-02-19T14:27:37.292Z,1.00
2024-02-19T14:30:09.686Z,1.00
2024-02-19T14:32:44.136Z,1.00
2024-02-19T14:35:56.478Z,1.00
2024-02-19T14:38:51.581Z,1.00
2024-02-19T14:41:22.473Z,1.00
2024-02-19T14:43:57.499Z,1.00
2024-02-19T14:46:30.118Z,1.00
2024-02-19T14:49:03.478Z,1.00
2024-02-19T14:51:32.960Z,1.00
2024-02-19T14:54:11.920Z,1.00
2024-02-19T14:56:42.938Z,1.00
2024-02-19T14:59:15.815Z,1.00
2024-02-19T15:01:44.478Z,1.00
2024-02-19T15:04:17.111Z,1.00
2024-02-19T15:06:45.936Z,1.00
2024-02-19T15:09:25.540Z,1.00
2024-02-19T15:11:58.136Z,1.00
2024-02-19T15:14:29.372Z,1.00
2024-02-19T15:16:59.693Z,1.00
2024-02-19T15:19:31.456Z,1.00
2024-02-19T15:22:02.583Z,1.00
2024-02-19T15:24:32.756Z,1.00
2024-02-19T15:27:02.242Z,4.30
2024-02-19T15:29:31.087Z,9.60
2024-02-19T15:32:08.500Z,13.40
2024-02-19T15:34:38.636Z,15.70
2024-02-19T15:39:57.102Z,18.50
2024-02-19T15:42:30.098Z,22.20
2024-02-19T15:45:21.116Z,26.40
2024-02-19T15:47:49.774Z,30.30
2024-02-19T15:50:19.207Z,31.10
2024-02-19T15:53:01.764Z,35.00
2024-02-19T15:58:27.570Z,38.60
2024-02-19T16:00:58.498Z,43.50
2024-02-19T16:06:43.388Z,50.80
2024-02-19T16:09:19.414Z,52.30
2024-02-19T16:11:54.196Z,53.00
2024-02-19T16:17:05.953Z,58.20
2024-02-19T16:19:35.187Z,59.40
2024-02-19T16:22:06.410Z,63.60
2024-02-19T16:27:58.009Z,68.40
2024-02-19T16:30:26.603Z,71.70
2024-02-19T16:32:55.269Z,73.20
2024-02-19T16:35:24.165Z,76.60
2024-02-19T16:37:52.882Z,80.30
2024-02-19T16:40:21.799Z,83.40
2024-02-19T16:42:52.568Z,85.50
2024-02-19T16:45:21.376Z,88.00
2024-02-19T16:47:49.971Z,88.00
2024-02-19T16:50:18.679Z,87.80
2024-02-19T16:52:47.658Z,85.40
2024-02-19T16:55:16.309Z,79.00
2024-02-19T16:57:45.007Z,84.60
2024-02-19T17:00:16.343Z,84.50
2024-02-19T17:02:45.636Z,88.40
2024-02-19T17:05:14.454Z,91.50
2024-02-19T17:07:43.589Z,91.20
2024-02-19T17:10:13.160Z,93.60
2024-02-19T17:12:44.569Z,94.40
2024-02-19T17:15:16.269Z,94.60
2024-02-19T17:17:44.835Z,95.80
2024-02-19T17:20:14.082Z,97.40
2024-02-19T17:22:42.706Z,99.90
2024-02-19T17:25:12.628Z,99.90
2024-02-19T17:27:41.217Z,99.90
2024-02-19T17:30:11.210Z,99.90
2024-02-19T17:32:41.236Z,99.90
2024-02-19T17:35:12.160Z,99.90
2024-02-19T17:37:40.857Z,99.90
2024-02-19T17:40:12.470Z,99.90
2024-02-19T17:42:41.161Z,99.90
2024-02-19T17:45:34.865Z,99.90
2024-02-19T17:48:05.230Z,99.90
2024-02-19T17:50:36.974Z,99.90
2024-02-19T17:53:10.570Z,99.90
2024-02-19T17:55:42.666Z,99.90
2024-02-19T17:58:11.309Z,99.90
2024-02-19T18:00:54.880Z,99.90
2024-02-19T18:03:24.961Z,99.90
2024-02-19T18:05:57.399Z,99.90
2024-02-19T18:08:41.780Z,99.90
2024-02-19T18:24:57.057Z,99.90
2024-02-19T18:27:25.791Z,99.90
2024-02-19T18:32:47.591Z,99.90
2024-02-19T18:35:20.812Z,99.90
2024-02-19T18:40:30.438Z,99.90
2024-02-19T18:43:05.488Z,99.90
2024-02-19T18:45:40.843Z,99.90
2024-02-19T18:50:47.866Z,99.90
2024-02-19T18:53:16.506Z,99.90
2024-02-19T18:55:46.164Z,99.90
2024-02-19T18:58:14.770Z,99.90
2024-02-19T19:00:43.416Z,99.90
2024-02-19T19:03:37.094Z,99.90
2024-02-19T19:06:07.676Z,99.90
2024-02-19T19:08:36.311Z,99.90
2024-02-19T19:11:05.660Z,99.90
2024-02-19T19:13:35.018Z,99.90
2024-02-19T19:16:03.725Z,99.90
2024-02-19T19:18:32.512Z,99.90
2024-02-19T19:21:04.187Z,99.90
2024-02-19T19:23:34.199Z,99.90
2024-02-19T19:26:03.189Z,99.90
2024-02-19T19:28:31.840Z,99.90
2024-02-19T19:31:00.547Z,99.90
2024-02-19T19:33:29.306Z,99.90
2024-02-19T19:35:58.931Z,99.90
2024-02-19T19:38:27.513Z,99.90
2024-02-19T19:40:58.303Z,99.90
2024-02-19T19:43:27.090Z,99.90
2024-02-19T19:45:57.342Z,99.90
2024-02-19T19:48:29.451Z,99.90
2024-02-19T19:50:58.449Z,99.90
2024-02-19T19:53:27.661Z,99.90
2024-02-19T19:55:57.753Z,99.90
2024-02-19T19:58:32.108Z,99.90
2024-02-19T20:01:02.348Z,99.90
2024-02-19T20:03:31.029Z,99.90
2024-02-19T20:05:59.809Z,99.90
2024-02-19T20:08:28.546Z,99.90
2024-02-19T20:10:59.136Z,99.90
2024-02-19T20:13:28.303Z,99.90
2024-02-19T20:15:57.461Z,99.90
2024-02-19T20:18:28.705Z,99.90
2024-02-19T20:20:57.821Z,99.90
2024-02-19T20:23:27.084Z,99.90
2024-02-19T20:25:59.364Z,99.90
2024-02-19T20:28:28.076Z,99.90
2024-02-19T20:30:56.944Z,99.90
2024-02-19T20:33:25.751Z,99.90
2024-02-19T20:35:56.189Z,99.90
2024-02-19T20:38:24.863Z,99.90
2024-02-19T20:40:54.100Z,99.90
2024-02-19T20:43:24.184Z,99.90
2024-02-19T20:45:52.931Z,99.90
2024-02-19T20:48:23.613Z,99.90
2024-02-19T20:50:52.235Z,99.90
2024-02-19T20:53:20.901Z,99.90
2024-02-19T20:55:49.546Z,99.90
2024-02-19T20:58:18.217Z,99.90
2024-02-19T21:00:48.315Z,99.90
2024-02-19T21:03:17.165Z,99.90
2024-02-19T21:05:45.935Z,99.90
2024-02-19T21:08:14.629Z,99.90
2024-02-19T21:10:44.161Z,99.90
2024-02-19T21:13:12.846Z,99.90
2024-02-19T21:15:41.461Z,99.90
2024-02-19T21:18:13.679Z,99.90
2024-02-19T21:20:42.372Z,99.90
2024-02-19T21:23:11.200Z,99.90
2024-02-19T21:25:40.348Z,99.90
2024-02-19T21:28:09.871Z,99.90
2024-02-19T21:30:38.527Z,99.90
2024-02-19T21:33:09.630Z,99.90
2024-02-19T21:35:56.035Z,99.90
2024-02-19T21:38:31.685Z,99.90
2024-02-19T21:41:06.025Z,99.90
2024-02-19T21:43:42.098Z,99.90
2024-02-19T21:46:24.509Z,99.90
2024-02-19T21:48:59.610Z,99.90
2024-02-19T21:51:39.060Z,99.90
2024-02-19T21:54:07.642Z,99.90
2024-02-19T21:56:41.110Z,99.90
2024-02-19T21:59:13.824Z,99.90
2024-02-19T22:01:43.092Z,99.90
2024-02-19T22:04:11.977Z,99.90
2024-02-19T22:06:44.634Z,99.90
2024-02-19T22:09:15.525Z,99.90
2024-02-19T22:11:52.046Z,99.90
2024-02-19T22:14:20.841Z,99.90
2024-02-19T22:16:49.393Z,99.90
2024-02-19T22:19:23.603Z,99.90
2024-02-19T22:21:57.334Z,99.90
2024-02-19T22:24:26.661Z,99.90
2024-02-19T22:27:07.519Z,99.90
2024-02-19T22:29:38.384Z,99.90
2024-02-19T22:32:07.784Z,99.90
2024-02-19T22:34:46.656Z,99.90
2024-02-19T22:37:17.610Z,99.90
2024-02-19T22:39:53.052Z,99.90
2024-02-19T22:42:24.830Z,99.90
2024-02-19T22:44:58.923Z,99.90
2024-02-19T22:47:31.275Z,99.90
2024-02-19T22:50:09.136Z,99.90
2024-02-19T22:52:42.196Z,99.90
2024-02-19T22:55:12.757Z,99.90
2024-02-19T23:00:25.326Z,99.90
2024-02-19T23:02:53.914Z,99.90
2024-02-19T23:05:22.769Z,99.90
2024-02-19T23:07:55.230Z,99.90
2024-02-19T23:10:24.318Z,99.90
2024-02-19T23:12:53.206Z,99.90
2024-02-19T23:15:22.770Z,99.90
2024-02-19T23:17:51.691Z,99.90
2024-02-19T23:20:21.013Z,99.90
2024-02-19T23:22:49.875Z,99.90
2024-02-19T23:25:20.503Z,99.90
2024-02-19T23:27:49.183Z,99.90
2024-02-19T23:30:17.749Z,99.90
2024-02-19T23:32:46.372Z,99.90
2024-02-19T23:35:15.505Z,99.90
2024-02-19T23:37:44.188Z,99.90
2024-02-19T23:40:18.636Z,99.90
2024-02-19T23:42:49.383Z,99.90
2024-02-19T23:45:18.173Z,99.90
2024-02-19T23:47:46.836Z,99.90
2024-02-19T23:50:15.642Z,99.90
2024-02-19T23:52:45.379Z,99.90
2024-02-19T23:55:16.424Z,99.90
2024-02-19T23:57:45.094Z,99.90
